Kenyon, Minnesota
Current Conditions -  °F | °C
As of 10:34 PM on Tuesday 21 Oct 2014 (Local Time) from KSYN Reporting Station
Clear Clear  
Wind Chill: 44°   Ceiling: Unl
Heat Index: 48°   Visibility: 10mi
Dew Point: 38°   Wind: 10mph
Humidity: 69%   Direction: 130°SE
Pressure: 30.17"   Gusts: NA
Location:  44.27°N, 92.99°W
Report Text: KSYN 220334Z AUTO 13009KT 10SM CLR 09/04 A3017 RMK AO2 T00900035
Loading
Personal Weather Stations






























Interactive Weather Map
Tropical Storm Tracking
New forecast layout! Learn more

10-Day Weather Forecast

Advertisements
Track Severe Weather on mobile